Terminal Aerodrome Forecast
Issued by NWS

Current Version | Previous Version | Graphics & Text | Print | Product List | Glossary On
Versions: 1 2 3 4 5 6 7 8 9 10 11 12 13 14 15 16 17 18 19 20 21 22 23 24 25
313
FTUS41 KPBZ 142327
TAFMGW
TAF
KMGW 142327Z 1500/1524 27003KT 5SM -RA BR OVC012
      TEMPO 1500/1503 2SM -RA BR OVC006
     FM150400 32003KT P6SM OVC010
     FM151000 33003KT P6SM BKN070
     FM151500 00000KT P6SM BKN250=

USA.gov is the U.S. government's official web portal to all federal, state and local government web resources and services.